sensor_id;sensor_type;location;lat;lon;timestamp;temperature;humidity
23271;DHT22;11804;51.118;17.058;2022-09-13T00:01:17;13.50;99.90
23271;DHT22;11804;51.118;17.058;2022-09-13T00:03:45;13.40;99.90
23271;DHT22;11804;51.118;17.058;2022-09-13T00:06:15;13.20;99.90
23271;DHT22;11804;51.118;17.058;2022-09-13T00:08:45;13.20;99.90
23271;DHT22;11804;51.118;17.058;2022-09-13T00:11:22;13.20;99.90
23271;DHT22;11804;51.118;17.058;2022-09-13T00:13:46;13.10;99.90
23271;DHT22;11804;51.118;17.058;2022-09-13T00:16:15;13.20;99.90
23271;DHT22;11804;51.118;17.058;2022-09-13T00:18:43;13.10;99.90
23271;DHT22;11804;51.118;17.058;2022-09-13T00:21:14;13.20;99.90
23271;DHT22;11804;51.118;17.058;2022-09-13T00:23:46;13.20;99.90
23271;DHT22;11804;51.118;17.058;2022-09-13T00:26:17;13.30;99.90
23271;DHT22;11804;51.118;17.058;2022-09-13T00:28:47;13.30;99.90
23271;DHT22;11804;51.118;17.058;2022-09-13T00:31:14;13.30;99.90
23271;DHT22;11804;51.118;17.058;2022-09-13T00:33:41;13.30;99.90
23271;DHT22;11804;51.118;17.058;2022-09-13T00:36:10;13.30;99.90
23271;DHT22;11804;51.118;17.058;2022-09-13T00:38:40;13.40;99.90
23271;DHT22;11804;51.118;17.058;2022-09-13T00:41:11;13.40;99.90
23271;DHT22;11804;51.118;17.058;2022-09-13T00:43:41;13.50;99.90
23271;DHT22;11804;51.118;17.058;2022-09-13T00:46:12;13.50;99.90
23271;DHT22;11804;51.118;17.058;2022-09-13T00:48:40;13.50;99.90
23271;DHT22;11804;51.118;17.058;2022-09-13T00:51:09;13.50;99.90
23271;DHT22;11804;51.118;17.058;2022-09-13T00:53:40;13.50;99.90
23271;DHT22;11804;51.118;17.058;2022-09-13T00:56:24;13.50;99.90
23271;DHT22;11804;51.118;17.058;2022-09-13T00:59:00;13.40;99.90
23271;DHT22;11804;51.118;17.058;2022-09-13T01:01:34;13.40;99.90
23271;DHT22;11804;51.118;17.058;2022-09-13T01:04:02;13.40;99.90
23271;DHT22;11804;51.118;17.058;2022-09-13T01:06:32;13.40;99.90
23271;DHT22;11804;51.118;17.058;2022-09-13T01:09:01;13.30;99.90
23271;DHT22;11804;51.118;17.058;2022-09-13T01:11:47;13.20;99.90
23271;DHT22;11804;51.118;17.058;2022-09-13T01:14:19;13.20;99.90
23271;DHT22;11804;51.118;17.058;2022-09-13T01:16:47;13.10;99.90
23271;DHT22;11804;51.118;17.058;2022-09-13T01:19:17;13.10;99.90
23271;DHT22;11804;51.118;17.058;2022-09-13T01:30:26;13.00;99.90
23271;DHT22;11804;51.118;17.058;2022-09-13T01:36:05;13.00;99.90
23271;DHT22;11804;51.118;17.058;2022-09-13T01:38:52;12.90;99.90
23271;DHT22;11804;51.118;17.058;2022-09-13T01:44:33;12.90;99.90
23271;DHT22;11804;51.118;17.058;2022-09-13T01:47:29;12.80;99.90
23271;DHT22;11804;51.118;17.058;2022-09-13T01:50:11;12.80;99.90
23271;DHT22;11804;51.118;17.058;2022-09-13T01:58:26;12.60;99.90
23271;DHT22;11804;51.118;17.058;2022-09-13T02:03:59;12.50;99.90
23271;DHT22;11804;51.118;17.058;2022-09-13T02:06:33;12.50;99.90
23271;DHT22;11804;51.118;17.058;2022-09-13T02:08:59;12.50;99.90
23271;DHT22;11804;51.118;17.058;2022-09-13T02:11:28;12.30;99.90
23271;DHT22;11804;51.118;17.058;2022-09-13T02:14:18;12.20;99.90
23271;DHT22;11804;51.118;17.058;2022-09-13T02:19:22;12.20;99.90
23271;DHT22;11804;51.118;17.058;2022-09-13T02:21:55;12.30;99.90
23271;DHT22;11804;51.118;17.058;2022-09-13T02:24:35;12.30;99.90
23271;DHT22;11804;51.118;17.058;2022-09-13T02:27:13;12.40;99.90
23271;DHT22;11804;51.118;17.058;2022-09-13T02:29:38;12.40;99.90
23271;DHT22;11804;51.118;17.058;2022-09-13T02:32:16;12.40;99.90
23271;DHT22;11804;51.118;17.058;2022-09-13T02:34:45;12.30;99.90
23271;DHT22;11804;51.118;17.058;2022-09-13T02:37:14;12.30;99.90
23271;DHT22;11804;51.118;17.058;2022-09-13T02:39:44;12.30;99.90
23271;DHT22;11804;51.118;17.058;2022-09-13T02:42:17;12.40;99.90
23271;DHT22;11804;51.118;17.058;2022-09-13T02:44:56;12.40;99.90
23271;DHT22;11804;51.118;17.058;2022-09-13T02:47:38;12.30;99.90
23271;DHT22;11804;51.118;17.058;2022-09-13T02:50:18;12.40;99.90
23271;DHT22;11804;51.118;17.058;2022-09-13T02:55:40;12.30;99.90
23271;DHT22;11804;51.118;17.058;2022-09-13T02:58:12;12.40;99.90
23271;DHT22;11804;51.118;17.058;2022-09-13T03:00:40;12.40;99.90
23271;DHT22;11804;51.118;17.058;2022-09-13T03:03:10;12.30;99.90
23271;DHT22;11804;51.118;17.058;2022-09-13T03:05:39;12.10;99.90
23271;DHT22;11804;51.118;17.058;2022-09-13T03:08:09;12.10;99.90
23271;DHT22;11804;51.118;17.058;2022-09-13T03:10:45;12.20;99.90
23271;DHT22;11804;51.118;17.058;2022-09-13T03:16:08;12.10;99.90
23271;DHT22;11804;51.118;17.058;2022-09-13T03:37:58;12.40;99.90
23271;DHT22;11804;51.118;17.058;2022-09-13T03:40:37;12.40;99.90
23271;DHT22;11804;51.118;17.058;2022-09-13T03:45:48;12.40;99.90
23271;DHT22;11804;51.118;17.058;2022-09-13T03:48:17;12.40;99.90
23271;DHT22;11804;51.118;17.058;2022-09-13T03:50:46;12.40;99.90
23271;DHT22;11804;51.118;17.058;2022-09-13T03:53:22;12.30;99.90
23271;DHT22;11804;51.118;17.058;2022-09-13T03:55:46;12.30;99.90
23271;DHT22;11804;51.118;17.058;2022-09-13T03:58:16;12.30;99.90
23271;DHT22;11804;51.118;17.058;2022-09-13T04:00:44;12.30;99.90
23271;DHT22;11804;51.118;17.058;2022-09-13T04:03:13;12.20;99.90
23271;DHT22;11804;51.118;17.058;2022-09-13T04:05:41;12.30;99.90
23271;DHT22;11804;51.118;17.058;2022-09-13T04:08:09;12.30;99.90
23271;DHT22;11804;51.118;17.058;2022-09-13T04:10:36;12.30;99.90
23271;DHT22;11804;51.118;17.058;2022-09-13T04:13:04;12.30;99.90
23271;DHT22;11804;51.118;17.058;2022-09-13T04:15:32;12.30;99.90
23271;DHT22;11804;51.118;17.058;2022-09-13T04:17:59;12.30;99.90
23271;DHT22;11804;51.118;17.058;2022-09-13T04:20:27;12.40;99.90
23271;DHT22;11804;51.118;17.058;2022-09-13T04:22:56;12.30;99.90
23271;DHT22;11804;51.118;17.058;2022-09-13T04:25:24;12.30;99.90
23271;DHT22;11804;51.118;17.058;2022-09-13T04:27:55;12.30;99.90
23271;DHT22;11804;51.118;17.058;2022-09-13T04:30:26;12.30;99.90
23271;DHT22;11804;51.118;17.058;2022-09-13T04:32:53;12.40;99.90
23271;DHT22;11804;51.118;17.058;2022-09-13T04:35:25;12.40;99.90
23271;DHT22;11804;51.118;17.058;2022-09-13T04:37:56;12.40;99.90
23271;DHT22;11804;51.118;17.058;2022-09-13T04:40:25;12.40;99.90
23271;DHT22;11804;51.118;17.058;2022-09-13T04:42:52;12.30;99.90
23271;DHT22;11804;51.118;17.058;2022-09-13T04:45:20;12.10;99.90
23271;DHT22;11804;51.118;17.058;2022-09-13T04:47:54;12.10;99.90
23271;DHT22;11804;51.118;17.058;2022-09-13T04:50:24;12.30;99.90
23271;DHT22;11804;51.118;17.058;2022-09-13T04:52:53;12.40;99.90
23271;DHT22;11804;51.118;17.058;2022-09-13T04:55:21;12.60;99.90
23271;DHT22;11804;51.118;17.058;2022-09-13T04:57:54;12.70;99.90
23271;DHT22;11804;51.118;17.058;2022-09-13T05:00:22;12.80;99.90
23271;DHT22;11804;51.118;17.058;2022-09-13T05:02:55;12.90;99.90
23271;DHT22;11804;51.118;17.058;2022-09-13T05:05:23;12.80;99.90
23271;DHT22;11804;51.118;17.058;2022-09-13T05:07:52;12.70;99.90
23271;DHT22;11804;51.118;17.058;2022-09-13T05:10:20;12.50;99.90
23271;DHT22;11804;51.118;17.058;2022-09-13T05:12:47;12.60;99.90
23271;DHT22;11804;51.118;17.058;2022-09-13T05:15:15;12.70;99.90
23271;DHT22;11804;51.118;17.058;2022-09-13T05:17:42;12.70;99.90
23271;DHT22;11804;51.118;17.058;2022-09-13T05:20:10;12.70;99.90
23271;DHT22;11804;51.118;17.058;2022-09-13T05:22:38;12.70;99.90
23271;DHT22;11804;51.118;17.058;2022-09-13T05:25:07;12.80;99.90
23271;DHT22;11804;51.118;17.058;2022-09-13T05:27:34;12.90;99.90
23271;DHT22;11804;51.118;17.058;2022-09-13T05:30:02;13.10;99.90
23271;DHT22;11804;51.118;17.058;2022-09-13T05:32:31;13.10;99.90
23271;DHT22;11804;51.118;17.058;2022-09-13T05:34:58;13.10;99.90
23271;DHT22;11804;51.118;17.058;2022-09-13T05:37:26;13.20;99.90
23271;DHT22;11804;51.118;17.058;2022-09-13T05:39:53;13.10;99.90
23271;DHT22;11804;51.118;17.058;2022-09-13T05:42:21;13.60;99.90
23271;DHT22;11804;51.118;17.058;2022-09-13T05:44:48;13.40;99.90
23271;DHT22;11804;51.118;17.058;2022-09-13T05:47:16;13.70;99.90
23271;DHT22;11804;51.118;17.058;2022-09-13T05:49:43;13.60;99.90
23271;DHT22;11804;51.118;17.058;2022-09-13T05:52:11;14.20;99.90
23271;DHT22;11804;51.118;17.058;2022-09-13T05:54:38;14.70;99.90
23271;DHT22;11804;51.118;17.058;2022-09-13T05:57:06;15.30;99.90
23271;DHT22;11804;51.118;17.058;2022-09-13T05:59:33;15.60;99.90
23271;DHT22;11804;51.118;17.058;2022-09-13T06:02:01;16.40;99.90
23271;DHT22;11804;51.118;17.058;2022-09-13T06:04:29;17.00;99.90
23271;DHT22;11804;51.118;17.058;2022-09-13T06:06:56;17.20;99.90
23271;DHT22;11804;51.118;17.058;2022-09-13T06:09:24;17.50;99.90
23271;DHT22;11804;51.118;17.058;2022-09-13T06:11:53;17.70;99.90
23271;DHT22;11804;51.118;17.058;2022-09-13T06:14:21;17.10;99.90
23271;DHT22;11804;51.118;17.058;2022-09-13T06:16:48;16.50;99.90
23271;DHT22;11804;51.118;17.058;2022-09-13T06:19:15;16.40;99.90
23271;DHT22;11804;51.118;17.058;2022-09-13T06:21:43;16.50;99.90
23271;DHT22;11804;51.118;17.058;2022-09-13T06:24:11;17.00;99.90
23271;DHT22;11804;51.118;17.058;2022-09-13T06:26:38;17.10;99.90
23271;DHT22;11804;51.118;17.058;2022-09-13T06:29:06;17.70;99.90
23271;DHT22;11804;51.118;17.058;2022-09-13T06:31:33;18.20;99.90
23271;DHT22;11804;51.118;17.058;2022-09-13T06:34:02;18.60;99.90
23271;DHT22;11804;51.118;17.058;2022-09-13T06:36:30;18.10;99.90
23271;DHT22;11804;51.118;17.058;2022-09-13T06:38:57;17.70;99.90
23271;DHT22;11804;51.118;17.058;2022-09-13T06:41:27;17.40;99.90
23271;DHT22;11804;51.118;17.058;2022-09-13T06:43:56;17.00;99.90
23271;DHT22;11804;51.118;17.058;2022-09-13T06:46:25;17.00;99.90
23271;DHT22;11804;51.118;17.058;2022-09-13T06:48:54;16.80;99.90
23271;DHT22;11804;51.118;17.058;2022-09-13T06:51:24;16.50;99.90
23271;DHT22;11804;51.118;17.058;2022-09-13T06:53:53;16.50;99.90
23271;DHT22;11804;51.118;17.058;2022-09-13T06:56:24;16.60;99.90
23271;DHT22;11804;51.118;17.058;2022-09-13T06:58:54;16.80;99.90
23271;DHT22;11804;51.118;17.058;2022-09-13T07:01:37;17.10;99.90
23271;DHT22;11804;51.118;17.058;2022-09-13T07:04:10;17.70;99.90
23271;DHT22;11804;51.118;17.058;2022-09-13T07:06:40;18.60;99.90
23271;DHT22;11804;51.118;17.058;2022-09-13T07:09:10;19.40;99.90
23271;DHT22;11804;51.118;17.058;2022-09-13T07:11:40;20.10;97.80
23271;DHT22;11804;51.118;17.058;2022-09-13T07:14:14;20.40;95.50
23271;DHT22;11804;51.118;17.058;2022-09-13T07:16:42;20.60;92.30
23271;DHT22;11804;51.118;17.058;2022-09-13T07:19:14;20.90;92.80
23271;DHT22;11804;51.118;17.058;2022-09-13T07:21:42;21.20;89.00
23271;DHT22;11804;51.118;17.058;2022-09-13T07:24:10;20.80;91.60
23271;DHT22;11804;51.118;17.058;2022-09-13T07:26:38;20.40;95.00
23271;DHT22;11804;51.118;17.058;2022-09-13T07:29:09;20.40;94.40
23271;DHT22;11804;51.118;17.058;2022-09-13T07:31:38;20.50;93.90
23271;DHT22;11804;51.118;17.058;2022-09-13T07:34:12;20.50;93.50
23271;DHT22;11804;51.118;17.058;2022-09-13T07:36:37;20.40;94.10
23271;DHT22;11804;51.118;17.058;2022-09-13T07:39:06;20.90;94.10
23271;DHT22;11804;51.118;17.058;2022-09-13T07:41:34;21.80;89.00
23271;DHT22;11804;51.118;17.058;2022-09-13T07:44:03;21.60;86.40
23271;DHT22;11804;51.118;17.058;2022-09-13T07:46:34;21.10;89.90
23271;DHT22;11804;51.118;17.058;2022-09-13T07:49:12;20.70;92.00
23271;DHT22;11804;51.118;17.058;2022-09-13T07:51:41;20.60;92.50
23271;DHT22;11804;51.118;17.058;2022-09-13T07:54:14;20.50;93.30
23271;DHT22;11804;51.118;17.058;2022-09-13T07:56:43;20.40;94.90
23271;DHT22;11804;51.118;17.058;2022-09-13T07:59:13;20.50;96.30
23271;DHT22;11804;51.118;17.058;2022-09-13T08:01:44;20.80;94.10
23271;DHT22;11804;51.118;17.058;2022-09-13T08:04:17;20.90;92.40
23271;DHT22;11804;51.118;17.058;2022-09-13T08:06:46;20.60;92.90
23271;DHT22;11804;51.118;17.058;2022-09-13T08:09:14;20.30;96.20
23271;DHT22;11804;51.118;17.058;2022-09-13T08:11:48;20.80;96.20
23271;DHT22;11804;51.118;17.058;2022-09-13T08:14:18;21.50;91.70
23271;DHT22;11804;51.118;17.058;2022-09-13T08:16:47;21.60;89.00
23271;DHT22;11804;51.118;17.058;2022-09-13T08:19:17;21.80;89.50
23271;DHT22;11804;51.118;17.058;2022-09-13T08:21:45;22.20;84.70
23271;DHT22;11804;51.118;17.058;2022-09-13T08:24:15;22.90;81.10
23271;DHT22;11804;51.118;17.058;2022-09-13T08:26:44;22.30;80.30
23271;DHT22;11804;51.118;17.058;2022-09-13T08:29:14;22.60;81.50
23271;DHT22;11804;51.118;17.058;2022-09-13T08:31:43;23.20;80.80
23271;DHT22;11804;51.118;17.058;2022-09-13T08:34:12;24.40;76.90
23271;DHT22;11804;51.118;17.058;2022-09-13T08:36:40;24.90;71.30
23271;DHT22;11804;51.118;17.058;2022-09-13T08:39:12;25.40;66.10
23271;DHT22;11804;51.118;17.058;2022-09-13T08:44:34;26.10;63.50
23271;DHT22;11804;51.118;17.058;2022-09-13T08:49:43;26.40;60.70
23271;DHT22;11804;51.118;17.058;2022-09-13T08:52:23;26.70;60.00
23271;DHT22;11804;51.118;17.058;2022-09-13T08:54:49;26.80;59.90
23271;DHT22;11804;51.118;17.058;2022-09-13T08:57:37;27.80;55.40
23271;DHT22;11804;51.118;17.058;2022-09-13T09:00:19;27.30;57.40
23271;DHT22;11804;51.118;17.058;2022-09-13T09:05:31;27.10;57.90
23271;DHT22;11804;51.118;17.058;2022-09-13T09:08:01;26.90;58.30
23271;DHT22;11804;51.118;17.058;2022-09-13T09:10:32;27.40;57.30
23271;DHT22;11804;51.118;17.058;2022-09-13T09:15:42;27.70;55.10
23271;DHT22;11804;51.118;17.058;2022-09-13T09:18:20;27.50;55.60
23271;DHT22;11804;51.118;17.058;2022-09-13T09:20:51;26.90;57.00
23271;DHT22;11804;51.118;17.058;2022-09-13T09:23:22;27.10;56.70
23271;DHT22;11804;51.118;17.058;2022-09-13T09:25:59;26.90;57.40
23271;DHT22;11804;51.118;17.058;2022-09-13T09:28:21;26.70;57.20
23271;DHT22;11804;51.118;17.058;2022-09-13T09:30:58;26.50;57.20
23271;DHT22;11804;51.118;17.058;2022-09-13T09:36:10;25.50;59.70
23271;DHT22;11804;51.118;17.058;2022-09-13T09:38:37;24.70;62.00
23271;DHT22;11804;51.118;17.058;2022-09-13T09:41:12;24.20;64.60
23271;DHT22;11804;51.118;17.058;2022-09-13T09:46:25;23.60;67.70
23271;DHT22;11804;51.118;17.058;2022-09-13T09:48:55;23.30;68.20
23271;DHT22;11804;51.118;17.058;2022-09-13T09:51:25;23.40;68.90
23271;DHT22;11804;51.118;17.058;2022-09-13T09:54:01;23.10;69.90
23271;DHT22;11804;51.118;17.058;2022-09-13T09:56:33;23.10;70.30
23271;DHT22;11804;51.118;17.058;2022-09-13T09:59:04;23.00;72.40
23271;DHT22;11804;51.118;17.058;2022-09-13T10:01:35;22.90;71.70
23271;DHT22;11804;51.118;17.058;2022-09-13T10:06:44;22.30;71.00
23271;DHT22;11804;51.118;17.058;2022-09-13T10:09:17;22.00;70.90
23271;DHT22;11804;51.118;17.058;2022-09-13T10:11:54;21.80;72.10
23271;DHT22;11804;51.118;17.058;2022-09-13T10:14:36;21.80;73.20
23271;DHT22;11804;51.118;17.058;2022-09-13T10:17:19;21.60;74.80
23271;DHT22;11804;51.118;17.058;2022-09-13T10:19:57;21.40;75.10
23271;DHT22;11804;51.118;17.058;2022-09-13T10:22:21;21.30;76.80
23271;DHT22;11804;51.118;17.058;2022-09-13T10:24:48;21.30;79.10
23271;DHT22;11804;51.118;17.058;2022-09-13T10:27:25;21.10;82.30
23271;DHT22;11804;51.118;17.058;2022-09-13T10:29:55;21.00;84.60
23271;DHT22;11804;51.118;17.058;2022-09-13T10:32:26;21.00;84.50
23271;DHT22;11804;51.118;17.058;2022-09-13T10:34:57;20.90;89.80
23271;DHT22;11804;51.118;17.058;2022-09-13T10:37:28;20.90;90.80
23271;DHT22;11804;51.118;17.058;2022-09-13T10:42:55;21.20;94.80
23271;DHT22;11804;51.118;17.058;2022-09-13T10:45:29;21.60;95.60
23271;DHT22;11804;51.118;17.058;2022-09-13T10:48:13;21.70;94.20
23271;DHT22;11804;51.118;17.058;2022-09-13T10:51:05;21.80;94.70
23271;DHT22;11804;51.118;17.058;2022-09-13T10:55:55;22.10;96.60
23271;DHT22;11804;51.118;17.058;2022-09-13T10:58:24;22.20;96.60
23271;DHT22;11804;51.118;17.058;2022-09-13T11:01:05;22.60;96.70
23271;DHT22;11804;51.118;17.058;2022-09-13T11:03:49;22.70;93.50
23271;DHT22;11804;51.118;17.058;2022-09-13T11:07:02;22.80;91.80
23271;DHT22;11804;51.118;17.058;2022-09-13T11:15:00;22.30;87.60
23271;DHT22;11804;51.118;17.058;2022-09-13T11:30:59;22.50;85.90
23271;DHT22;11804;51.118;17.058;2022-09-13T11:39:10;22.50;81.00
23271;DHT22;11804;51.118;17.058;2022-09-13T11:45:08;22.40;79.50
23271;DHT22;11804;51.118;17.058;2022-09-13T11:50:02;22.50;81.30
23271;DHT22;11804;51.118;17.058;2022-09-13T11:52:49;22.70;79.10
23271;DHT22;11804;51.118;17.058;2022-09-13T11:55:25;22.40;77.70
23271;DHT22;11804;51.118;17.058;2022-09-13T11:57:56;22.30;80.60
23271;DHT22;11804;51.118;17.058;2022-09-13T12:03:14;22.10;81.80
23271;DHT22;11804;51.118;17.058;2022-09-13T12:05:49;22.00;84.00
23271;DHT22;11804;51.118;17.058;2022-09-13T12:08:35;22.10;83.80
23271;DHT22;11804;51.118;17.058;2022-09-13T12:11:18;22.10;83.90
23271;DHT22;11804;51.118;17.058;2022-09-13T12:13:58;22.10;84.10
23271;DHT22;11804;51.118;17.058;2022-09-13T12:16:37;22.00;84.60
23271;DHT22;11804;51.118;17.058;2022-09-13T12:19:19;21.90;84.50
23271;DHT22;11804;51.118;17.058;2022-09-13T12:21:48;21.70;85.50
23271;DHT22;11804;51.118;17.058;2022-09-13T12:24:31;21.60;86.10
23271;DHT22;11804;51.118;17.058;2022-09-13T12:32:28;21.70;87.70
23271;DHT22;11804;51.118;17.058;2022-09-13T12:35:08;21.80;87.30
23271;DHT22;11804;51.118;17.058;2022-09-13T12:48:59;21.50;88.10
23271;DHT22;11804;51.118;17.058;2022-09-13T12:51:32;21.40;89.30
23271;DHT22;11804;51.118;17.058;2022-09-13T12:54:16;21.40;91.00
23271;DHT22;11804;51.118;17.058;2022-09-13T12:59:52;21.40;92.00
23271;DHT22;11804;51.118;17.058;2022-09-13T13:08:01;21.50;91.70
23271;DHT22;11804;51.118;17.058;2022-09-13T13:10:35;21.50;91.80
23271;DHT22;11804;51.118;17.058;2022-09-13T13:13:14;21.60;91.70
23271;DHT22;11804;51.118;17.058;2022-09-13T13:21:20;21.90;90.80
23271;DHT22;11804;51.118;17.058;2022-09-13T13:23:37;21.80;88.50
23271;DHT22;11804;51.118;17.058;2022-09-13T13:29:19;21.90;89.90
23271;DHT22;11804;51.118;17.058;2022-09-13T13:34:38;21.90;87.60
23271;DHT22;11804;51.118;17.058;2022-09-13T13:39:51;22.00;90.30
23271;DHT22;11804;51.118;17.058;2022-09-13T13:45:04;22.30;90.20
23271;DHT22;11804;51.118;17.058;2022-09-13T13:50:11;21.80;90.50
23271;DHT22;11804;51.118;17.058;2022-09-13T13:52:37;21.90;91.20
23271;DHT22;11804;51.118;17.058;2022-09-13T14:00:36;22.00;91.20
23271;DHT22;11804;51.118;17.058;2022-09-13T14:03:26;22.00;91.10
23271;DHT22;11804;51.118;17.058;2022-09-13T14:12:03;22.10;91.20
23271;DHT22;11804;51.118;17.058;2022-09-13T14:20:14;22.00;91.40
23271;DHT22;11804;51.118;17.058;2022-09-13T14:22:42;21.90;90.80
23271;DHT22;11804;51.118;17.058;2022-09-13T14:25:21;21.90;91.20
23271;DHT22;11804;51.118;17.058;2022-09-13T14:27:44;21.90;90.60
23271;DHT22;11804;51.118;17.058;2022-09-13T14:30:41;21.90;90.10
23271;DHT22;11804;51.118;17.058;2022-09-13T14:32:57;21.80;90.60
23271;DHT22;11804;51.118;17.058;2022-09-13T14:35:30;21.90;91.00
23271;DHT22;11804;51.118;17.058;2022-09-13T14:40:50;21.80;91.80
23271;DHT22;11804;51.118;17.058;2022-09-13T14:43:26;21.70;91.70
23271;DHT22;11804;51.118;17.058;2022-09-13T14:46:03;21.80;92.70
23271;DHT22;11804;51.118;17.058;2022-09-13T14:51:20;21.80;93.10
23271;DHT22;11804;51.118;17.058;2022-09-13T14:53:50;21.80;93.10
23271;DHT22;11804;51.118;17.058;2022-09-13T14:58:59;21.80;94.00
23271;DHT22;11804;51.118;17.058;2022-09-13T15:01:33;21.90;93.90
23271;DHT22;11804;51.118;17.058;2022-09-13T15:04:03;21.80;94.70
23271;DHT22;11804;51.118;17.058;2022-09-13T15:06:38;21.70;93.90
23271;DHT22;11804;51.118;17.058;2022-09-13T15:14:36;21.50;95.70
23271;DHT22;11804;51.118;17.058;2022-09-13T15:17:09;21.50;96.10
23271;DHT22;11804;51.118;17.058;2022-09-13T15:19:49;21.50;94.30
23271;DHT22;11804;51.118;17.058;2022-09-13T15:22:23;21.60;93.50
23271;DHT22;11804;51.118;17.058;2022-09-13T15:24:56;21.50;93.20
23271;DHT22;11804;51.118;17.058;2022-09-13T15:27:29;21.50;94.10
23271;DHT22;11804;51.118;17.058;2022-09-13T15:30:02;21.40;93.90
23271;DHT22;11804;51.118;17.058;2022-09-13T15:32:39;21.40;94.40
23271;DHT22;11804;51.118;17.058;2022-09-13T15:35:32;21.50;94.40
23271;DHT22;11804;51.118;17.058;2022-09-13T15:38:00;21.50;94.40
23271;DHT22;11804;51.118;17.058;2022-09-13T15:40:29;21.60;94.40
23271;DHT22;11804;51.118;17.058;2022-09-13T15:43:00;21.70;95.30
23271;DHT22;11804;51.118;17.058;2022-09-13T15:45:27;21.60;95.60
23271;DHT22;11804;51.118;17.058;2022-09-13T15:47:56;21.60;96.50
23271;DHT22;11804;51.118;17.058;2022-09-13T15:50:28;21.50;96.90
23271;DHT22;11804;51.118;17.058;2022-09-13T15:52:59;21.50;96.70
23271;DHT22;11804;51.118;17.058;2022-09-13T15:55:28;21.40;96.80
23271;DHT22;11804;51.118;17.058;2022-09-13T15:57:57;21.50;96.40
23271;DHT22;11804;51.118;17.058;2022-09-13T16:00:26;21.60;95.70
23271;DHT22;11804;51.118;17.058;2022-09-13T16:02:55;21.50;95.20
23271;DHT22;11804;51.118;17.058;2022-09-13T16:05:23;21.40;96.20
23271;DHT22;11804;51.118;17.058;2022-09-13T16:07:50;21.40;96.70
23271;DHT22;11804;51.118;17.058;2022-09-13T16:10:21;21.30;97.30
23271;DHT22;11804;51.118;17.058;2022-09-13T16:12:49;21.30;96.80
23271;DHT22;11804;51.118;17.058;2022-09-13T16:15:18;21.20;97.80
23271;DHT22;11804;51.118;17.058;2022-09-13T16:17:46;21.20;98.10
23271;DHT22;11804;51.118;17.058;2022-09-13T16:20:14;21.20;98.20
23271;DHT22;11804;51.118;17.058;2022-09-13T16:22:42;21.20;97.90
23271;DHT22;11804;51.118;17.058;2022-09-13T16:25:14;21.10;98.40
23271;DHT22;11804;51.118;17.058;2022-09-13T16:27:42;21.10;99.90
23271;DHT22;11804;51.118;17.058;2022-09-13T16:30:15;21.10;99.90
23271;DHT22;11804;51.118;17.058;2022-09-13T16:32:44;21.00;99.90
23271;DHT22;11804;51.118;17.058;2022-09-13T16:35:12;20.90;99.90
23271;DHT22;11804;51.118;17.058;2022-09-13T16:37:41;20.90;99.90
23271;DHT22;11804;51.118;17.058;2022-09-13T16:40:15;20.90;99.90
23271;DHT22;11804;51.118;17.058;2022-09-13T16:42:39;20.90;99.90
23271;DHT22;11804;51.118;17.058;2022-09-13T16:45:08;20.80;99.90
23271;DHT22;11804;51.118;17.058;2022-09-13T16:47:42;20.80;99.90
23271;DHT22;11804;51.118;17.058;2022-09-13T16:50:09;20.70;99.90
23271;DHT22;11804;51.118;17.058;2022-09-13T16:52:36;20.70;99.90
23271;DHT22;11804;51.118;17.058;2022-09-13T16:55:05;20.60;99.90
23271;DHT22;11804;51.118;17.058;2022-09-13T16:57:33;20.60;99.90
23271;DHT22;11804;51.118;17.058;2022-09-13T17:00:02;20.60;99.90
23271;DHT22;11804;51.118;17.058;2022-09-13T17:02:32;20.60;99.90
23271;DHT22;11804;51.118;17.058;2022-09-13T17:05:01;20.60;99.90
23271;DHT22;11804;51.118;17.058;2022-09-13T17:07:31;20.50;99.90
23271;DHT22;11804;51.118;17.058;2022-09-13T17:10:00;20.50;99.90
23271;DHT22;11804;51.118;17.058;2022-09-13T17:12:29;20.50;99.90
23271;DHT22;11804;51.118;17.058;2022-09-13T17:14:56;20.40;99.90
23271;DHT22;11804;51.118;17.058;2022-09-13T17:17:25;20.40;99.90
23271;DHT22;11804;51.118;17.058;2022-09-13T17:19:53;20.40;99.90
23271;DHT22;11804;51.118;17.058;2022-09-13T17:22:20;20.40;99.90
23271;DHT22;11804;51.118;17.058;2022-09-13T17:24:48;20.40;99.90
23271;DHT22;11804;51.118;17.058;2022-09-13T17:27:16;20.40;99.90
23271;DHT22;11804;51.118;17.058;2022-09-13T17:29:44;20.40;99.90
23271;DHT22;11804;51.118;17.058;2022-09-13T17:32:12;20.40;99.90
23271;DHT22;11804;51.118;17.058;2022-09-13T17:34:39;20.40;99.90
23271;DHT22;11804;51.118;17.058;2022-09-13T17:37:07;20.50;99.90
23271;DHT22;11804;51.118;17.058;2022-09-13T17:39:35;20.60;99.90
23271;DHT22;11804;51.118;17.058;2022-09-13T17:42:02;20.70;99.90
23271;DHT22;11804;51.118;17.058;2022-09-13T17:44:30;20.70;99.90
23271;DHT22;11804;51.118;17.058;2022-09-13T17:46:58;20.70;99.90
23271;DHT22;11804;51.118;17.058;2022-09-13T17:49:27;20.50;99.90
23271;DHT22;11804;51.118;17.058;2022-09-13T17:51:54;20.40;99.90
23271;DHT22;11804;51.118;17.058;2022-09-13T17:54:23;20.20;99.90
23271;DHT22;11804;51.118;17.058;2022-09-13T17:56:52;20.20;99.90
23271;DHT22;11804;51.118;17.058;2022-09-13T17:59:21;20.20;99.90
23271;DHT22;11804;51.118;17.058;2022-09-13T18:01:51;20.10;99.90
23271;DHT22;11804;51.118;17.058;2022-09-13T18:04:21;20.10;99.90
23271;DHT22;11804;51.118;17.058;2022-09-13T18:06:51;20.00;99.90
23271;DHT22;11804;51.118;17.058;2022-09-13T18:09:19;20.00;99.90
23271;DHT22;11804;51.118;17.058;2022-09-13T18:11:47;20.00;99.90
23271;DHT22;11804;51.118;17.058;2022-09-13T18:14:17;20.00;99.90
23271;DHT22;11804;51.118;17.058;2022-09-13T18:16:46;20.00;99.90
23271;DHT22;11804;51.118;17.058;2022-09-13T18:19:15;19.90;99.90
23271;DHT22;11804;51.118;17.058;2022-09-13T18:21:43;19.90;99.90
23271;DHT22;11804;51.118;17.058;2022-09-13T18:24:10;19.80;99.90
23271;DHT22;11804;51.118;17.058;2022-09-13T18:26:39;19.80;99.90
23271;DHT22;11804;51.118;17.058;2022-09-13T18:29:09;19.80;99.90
23271;DHT22;11804;51.118;17.058;2022-09-13T18:31:38;19.70;99.90
23271;DHT22;11804;51.118;17.058;2022-09-13T18:34:11;19.70;99.90
23271;DHT22;11804;51.118;17.058;2022-09-13T18:36:40;19.60;99.90
23271;DHT22;11804;51.118;17.058;2022-09-13T18:39:16;19.60;99.90
23271;DHT22;11804;51.118;17.058;2022-09-13T18:41:46;19.60;99.90
23271;DHT22;11804;51.118;17.058;2022-09-13T18:44:15;19.50;99.90
23271;DHT22;11804;51.118;17.058;2022-09-13T18:46:43;19.50;99.90